Time;durP1;ratioP1;P1;durP2;ratioP2;P2;SDS_P1;SDS_P2;PMS_P1;PMS_P2;Temp;Humidity;BMP_temperature;BMP_pressure;BME280_temperature;BME280_humidity;BME280_pressure;Samples;Min_cycle;Max_cycle;Signal;HPM_P1;HPM_P2
2023/06/04 00:01:27;;;;;;;;;;;;;;;-144.99;73.28;52227.97;5029791;28;20293;-74
2023/06/04 00:03:55;;;;;;;;;;;;;;;-144.99;73.27;52215.75;5032546;28;20188;-73
2023/06/04 00:06:21;;;;;;;;;;;;;;;-144.99;73.38;52227.97;5028341;28;19937;-66
2023/06/04 00:08:48;;;;;;;;;;;;;;;-144.99;73.54;52205.53;5033202;28;19929;-66
2023/06/04 00:11:15;;;;;;;;;;;;;;;-144.99;73.53;52272.81;5030784;28;20391;-66
2023/06/04 00:13:41;;;;;;;;;;;;;;;-144.99;73.64;52236.13;5045422;28;20365;-66
2023/06/04 00:16:08;;;;;;;;;;;;;;;-144.99;73.83;52183.13;5045139;28;19940;-66
2023/06/04 00:18:34;;;;;;;;;;;;;;;-144.99;73.63;52240.19;5049247;28;19928;-66
2023/06/04 00:21:02;;;;;;;;;;;;;;;-144.99;73.77;52236.13;5061553;28;19928;-65
2023/06/04 00:23:29;;;;;;;;;;;;;;;-144.99;73.93;52211.66;5044254;28;20002;-66
2023/06/04 00:25:56;;;;;;;;;;;;;;;-144.99;74.14;52195.34;5028115;28;19936;-66
2023/06/04 00:28:22;;;;;;;;;;;;;;;-144.99;74.02;52213.69;5026852;28;20310;-68
2023/06/04 00:30:49;;;;;;;;;;;;;;;-144.99;74.03;52272.81;5029151;28;19933;-68
2023/06/04 00:33:15;;;;;;;;;;;;;;;-144.99;74.29;52209.63;4679402;28;10000387;-68
2023/06/04 00:35:42;;;;;;;;;;;;;;;-144.99;74.29;52219.81;5026143;28;20416;-68
2023/06/04 00:38:10;;;;;;;;;;;;;;;-144.99;74.75;52238.16;5030377;28;19933;-71
2023/06/04 00:40:37;;;;;;;;;;;;;;;-144.99;74.40;52252.44;5038505;28;19933;-72
2023/06/04 00:43:05;;;;;;;;;;;;;;;-144.99;74.47;52234.09;5042039;28;19933;-72
2023/06/04 00:45:32;;;;;;;;;;;;;;;-144.99;74.64;52285.03;5037699;28;19937;-71
2023/06/04 00:47:59;;;;;;;;;;;;;;;-144.99;74.94;52264.66;5040459;28;20200;-71
2023/06/04 00:50:25;;;;;;;;;;;;;;;-144.99;74.89;52197.41;5041973;28;20345;-67
2023/06/04 00:52:52;;;;;;;;;;;;;;;-144.99;75.14;52215.75;5029841;28;19929;-69
2023/06/04 00:55:20;;;;;;;;;;;;;;;-144.99;75.38;52227.97;5036188;28;20417;-71
2023/06/04 00:57:47;;;;;;;;;;;;;;;-144.99;75.64;52215.75;5039116;28;19931;-68
2023/06/04 01:00:15;;;;;;;;;;;;;;;-144.99;75.78;52225.94;5043704;28;19935;-70
2023/06/04 01:02:43;;;;;;;;;;;;;;;-144.99;75.87;52227.97;5051391;28;19971;-68
2023/06/04 01:05:13;;;;;;;;;;;;;;;-144.99;76.06;52244.28;5037424;28;20023;-68
2023/06/04 01:07:45;;;;;;;;;;;;;;;-144.99;76.41;52211.66;5040825;28;20267;-76
2023/06/04 01:10:12;;;;;;;;;;;;;;;-144.99;76.92;52260.56;5035168;28;19978;-71
2023/06/04 01:12:41;;;;;;;;;;;;;;;-144.99;78.96;52260.56;5032611;28;19929;-71
2023/06/04 01:15:08;;;;;;;;;;;;;;;-144.99;78.06;52211.66;5030852;28;19936;-70
2023/06/04 01:17:38;;;;;;;;;;;;;;;-144.99;77.85;52223.88;5038597;28;19925;-71
2023/06/04 01:20:22;;;;;;;;;;;;;;;-144.99;77.79;52256.50;5045791;28;19936;-70
2023/06/04 01:22:56;;;;;;;;;;;;;;;-144.99;77.95;52236.13;5040531;28;19925;-70
2023/06/04 01:25:26;;;;;;;;;;;;;;;-144.99;77.98;52232.03;5036565;28;19931;-69
2023/06/04 01:27:56;;;;;;;;;;;;;;;-144.99;78.31;52223.88;5034950;28;20026;-68
2023/06/04 01:30:25;;;;;;;;;;;;;;;-144.99;78.38;52238.16;5036629;28;19979;-71
2023/06/04 01:32:51;;;;;;;;;;;;;;;-144.99;78.75;52240.19;5056388;28;20376;-70
2023/06/04 01:35:18;;;;;;;;;;;;;;;-144.99;79.24;52232.03;5055071;28;20023;-70
2023/06/04 01:37:45;;;;;;;;;;;;;;;-144.99;79.22;52248.34;5047133;28;20020;-72
2023/06/04 01:40:12;;;;;;;;;;;;;;;-144.99;79.42;52244.28;5043335;28;19940;-68
2023/06/04 01:42:39;;;;;;;;;;;;;;;-144.99;79.72;52221.84;5038191;28;19933;-69
2023/06/04 01:45:07;;;;;;;;;;;;;;;-144.99;81.32;52256.50;5032115;28;19929;-69
2023/06/04 01:47:34;;;;;;;;;;;;;;;-144.99;82.94;52223.88;5043265;28;19984;-67
2023/06/04 01:50:01;;;;;;;;;;;;;;;-144.99;83.76;52252.44;5033904;28;19929;-66
2023/06/04 01:52:28;;;;;;;;;;;;;;;-144.99;82.80;52240.19;5033899;28;19929;-66
2023/06/04 01:54:55;;;;;;;;;;;;;;;-144.99;81.63;52219.81;5038210;28;19952;-67
2023/06/04 01:57:22;;;;;;;;;;;;;;;-144.99;81.49;52203.50;5033488;28;19932;-66
2023/06/04 01:59:49;;;;;;;;;;;;;;;-144.99;81.51;52244.28;5032316;28;19963;-66
2023/06/04 02:02:18;;;;;;;;;;;;;;;-144.99;81.47;52240.19;5039589;28;19928;-67
2023/06/04 02:04:46;;;;;;;;;;;;;;;-144.99;81.59;52223.88;5039231;28;20113;-68
2023/06/04 02:07:17;;;;;;;;;;;;;;;-144.99;81.85;52260.56;5038303;28;19996;-66
2023/06/04 02:09:44;;;;;;;;;;;;;;;-144.99;81.98;52236.13;5035494;28;20305;-68
2023/06/04 02:12:11;;;;;;;;;;;;;;;-144.99;81.90;52236.13;5035015;28;19937;-67
2023/06/04 02:14:37;;;;;;;;;;;;;;;-144.99;82.29;52244.28;5029838;28;19940;-67
2023/06/04 02:17:04;;;;;;;;;;;;;;;-144.99;82.25;52230.00;5029877;28;19951;-69
2023/06/04 02:19:33;;;;;;;;;;;;;;;-144.99;82.12;52201.47;5029751;28;20395;-67
2023/06/04 02:22:00;;;;;;;;;;;;;;;-144.99;82.18;52227.97;5029462;28;20402;-70
2023/06/04 02:24:27;;;;;;;;;;;;;;;-144.99;82.32;52260.56;5029921;28;20038;-68
2023/06/04 02:26:53;;;;;;;;;;;;;;;-144.99;82.29;52240.19;5031609;28;20390;-68
2023/06/04 02:29:20;;;;;;;;;;;;;;;-144.99;82.29;52236.13;5044180;28;19929;-68
2023/06/04 02:31:46;;;;;;;;;;;;;;;-144.99;82.60;52223.88;5046890;28;19940;-68
2023/06/04 02:34:13;;;;;;;;;;;;;;;-144.99;83.09;52240.19;5046645;28;19970;-66
2023/06/04 02:36:48;;;;;;;;;;;;;;;-144.99;83.17;52252.44;5045780;28;19925;-66
2023/06/04 02:39:14;;;;;;;;;;;;;;;-144.99;83.74;52248.34;5043811;28;20019;-66
2023/06/04 02:41:41;;;;;;;;;;;;;;;-144.99;84.03;52230.00;5044507;28;19925;-65
2023/06/04 02:44:07;;;;;;;;;;;;;;;-144.99;84.36;52236.13;5039808;28;19932;-65
2023/06/04 02:46:34;;;;;;;;;;;;;;;-144.99;84.61;52236.13;5045803;28;19929;-65
2023/06/04 02:49:01;;;;;;;;;;;;;;;-144.99;84.38;52236.13;5041917;28;19941;-64
2023/06/04 02:51:28;;;;;;;;;;;;;;;-144.99;85.12;52246.31;5045628;28;19925;-64
2023/06/04 02:53:56;;;;;;;;;;;;;;;-144.99;86.80;52268.72;5045255;28;19928;-64
2023/06/04 02:56:23;;;;;;;;;;;;;;;-144.99;87.00;52240.19;5043150;28;20211;-65
2023/06/04 02:58:50;;;;;;;;;;;;;;;-144.99;87.65;52215.75;5027925;28;19933;-64
2023/06/04 03:01:18;;;;;;;;;;;;;;;-144.99;87.86;52297.25;5027107;28;19937;-65
2023/06/04 03:03:46;;;;;;;;;;;;;;;-144.99;87.84;52244.28;5027286;28;20364;-65
2023/06/04 03:06:14;;;;;;;;;;;;;;;-144.99;87.88;52272.81;5029047;28;20390;-65
2023/06/04 03:08:40;;;;;;;;;;;;;;;-144.99;88.23;52236.13;5028832;28;19933;-66
2023/06/04 03:11:08;;;;;;;;;;;;;;;-144.99;88.49;52268.72;5026761;28;19933;-66
2023/06/04 03:13:36;;;;;;;;;;;;;;;-144.99;88.29;52236.13;5026324;28;20386;-68
2023/06/04 03:16:02;;;;;;;;;;;;;;;-144.99;88.33;52250.38;5027897;28;19933;-67
2023/06/04 03:18:29;;;;;;;;;;;;;;;-144.99;88.08;52248.34;5027928;28;19933;-67
2023/06/04 03:20:56;;;;;;;;;;;;;;;-144.99;88.13;52244.28;5027345;28;20329;-67
2023/06/04 03:23:23;;;;;;;;;;;;;;;-144.99;88.30;52252.44;5028424;28;19929;-68
2023/06/04 03:25:49;;;;;;;;;;;;;;;-144.99;88.51;52223.88;5028530;28;19929;-67
2023/06/04 03:28:17;;;;;;;;;;;;;;;-144.99;88.56;52240.19;5026207;28;20004;-66
2023/06/04 03:30:44;;;;;;;;;;;;;;;-144.99;88.83;52223.88;5027920;28;19929;-65
2023/06/04 03:33:10;;;;;;;;;;;;;;;-144.99;89.21;52256.50;5028810;28;19932;-65
2023/06/04 03:35:37;;;;;;;;;;;;;;;-144.99;89.51;52260.56;5028838;28;20013;-64
2023/06/04 03:38:04;;;;;;;;;;;;;;;-144.99;89.84;52240.19;5034300;28;20071;-67
2023/06/04 03:40:30;;;;;;;;;;;;;;;-144.99;89.69;52240.19;5032298;28;20525;-65
2023/06/04 03:42:57;;;;;;;;;;;;;;;-144.99;89.86;52240.19;5031791;28;20000;-67
2023/06/04 03:45:25;;;;;;;;;;;;;;;-144.99;89.76;52211.66;5035883;28;19933;-65
2023/06/04 03:47:52;;;;;;;;;;;;;;;-144.99;89.77;52244.28;5053987;28;20362;-65
2023/06/04 03:50:19;;;;;;;;;;;;;;;-144.99;90.01;52244.28;5050682;28;20408;-65
2023/06/04 03:52:45;;;;;;;;;;;;;;;-144.99;90.07;52264.66;5044142;28;19937;-63
2023/06/04 03:55:13;;;;;;;;;;;;;;;-144.99;89.94;52264.66;5041434;28;19936;-65
2023/06/04 03:57:40;;;;;;;;;;;;;;;-144.99;89.79;52199.44;5043222;28;20334;-65
2023/06/04 04:00:08;;;;;;;;;;;;;;;-144.99;89.53;52217.78;5046590;28;19990;-65
2023/06/04 04:02:36;;;;;;;;;;;;;;;-144.99;89.71;52223.88;5035765;28;19948;-65
2023/06/04 04:05:02;;;;;;;;;;;;;;;-144.99;89.51;52232.03;5035713;28;20024;-65
2023/06/04 04:07:29;;;;;;;;;;;;;;;-144.99;89.55;52240.19;5033484;28;19956;-66
2023/06/04 04:09:56;;;;;;;;;;;;;;;-144.99;89.79;52236.13;5030692;28;20700;-67
2023/06/04 04:12:22;;;;;;;;;;;;;;;-144.99;89.98;52193.31;5033141;28;19929;-68
2023/06/04 04:14:49;;;;;;;;;;;;;;;-144.99;90.04;52244.28;5028140;28;19979;-67
2023/06/04 04:17:16;;;;;;;;;;;;;;;-144.99;90.03;52244.28;5033329;28;20288;-65
2023/06/04 04:19:44;;;;;;;;;;;;;;;-144.99;89.97;52170.91;5043632;28;20346;-67
2023/06/04 04:22:11;;;;;;;;;;;;;;;-144.99;90.15;52199.44;5037444;28;19925;-66
2023/06/04 04:24:39;;;;;;;;;;;;;;;-144.99;90.09;52227.97;5037222;28;19929;-67
2023/06/04 04:27:05;;;;;;;;;;;;;;;-144.99;89.97;52209.63;5040063;28;19980;-67
2023/06/04 04:29:34;;;;;;;;;;;;;;;-144.99;89.93;52191.28;5032697;28;19925;-67
2023/06/04 04:32:01;;;;;;;;;;;;;;;-144.99;89.81;52217.78;5038343;28;19925;-67
2023/06/04 04:34:28;;;;;;;;;;;;;;;-144.99;89.54;52207.59;5034002;28;19925;-72
2023/06/04 04:36:56;;;;;;;;;;;;;;;-144.99;89.47;52211.66;5034746;28;19929;-70
2023/06/04 04:39:24;;;;;;;;;;;;;;;-144.99;89.43;52207.59;5035918;28;20408;-69
2023/06/04 04:41:50;;;;;;;;;;;;;;;-144.99;89.53;52199.44;5037728;28;19975;-69
2023/06/04 04:44:17;;;;;;;;;;;;;;;-144.99;89.87;52191.28;5035643;28;19929;-70
2023/06/04 04:46:44;;;;;;;;;;;;;;;-144.99;90.06;52232.03;5037310;28;19933;-71
2023/06/04 04:49:10;;;;;;;;;;;;;;;-144.99;90.02;52191.28;5032162;28;20370;-69
2023/06/04 04:51:37;;;;;;;;;;;;;;;-144.99;89.82;52189.25;5034707;28;19929;-69
2023/06/04 04:54:05;;;;;;;;;;;;;;;-144.99;89.77;52240.19;5030520;28;20000;-72
2023/06/04 04:56:34;;;;;;;;;;;;;;;-144.99;89.64;52242.22;5033022;28;21424;-73
2023/06/04 04:59:00;;;;;;;;;;;;;;;-144.99;89.81;52195.34;5030499;28;19936;-69
2023/06/04 05:01:27;;;;;;;;;;;;;;;-144.99;89.86;52201.47;5034279;28;20342;-69
2023/06/04 05:03:53;;;;;;;;;;;;;;;-144.99;89.77;52201.47;5034245;28;20223;-68
2023/06/04 05:06:20;;;;;;;;;;;;;;;-144.99;87.62;52179.06;5032838;28;19929;-68
2023/06/04 05:08:47;;;;;;;;;;;;;;;-144.99;86.68;52187.19;5032607;28;20386;-68
2023/06/04 05:11:15;;;;;;;;;;;;;;;-144.99;85.95;52187.19;5032672;28;19929;-67
2023/06/04 05:13:42;;;;;;;;;;;;;;;-144.99;85.88;52219.81;5035789;28;19929;-67
2023/06/04 05:16:11;;;;;;;;;;;;;;;-144.99;85.47;52219.81;5033302;28;20066;-66
2023/06/04 05:18:41;;;;;;;;;;;;;;;-144.99;85.08;52264.66;5031358;28;19925;-66
2023/06/04 05:21:07;;;;;;;;;;;;;;;-144.99;85.08;52179.06;5032117;28;19924;-67
2023/06/04 05:23:37;;;;;;;;;;;;;;;-144.99;84.70;52191.28;5032104;28;19932;-67
2023/06/04 05:26:04;;;;;;;;;;;;;;;-144.99;84.52;52156.63;5030547;28;19990;-67
2023/06/04 05:28:32;;;;;;;;;;;;;;;-144.99;84.15;52170.91;5027750;28;20336;-67
2023/06/04 05:30:59;;;;;;;;;;;;;;;-144.99;83.64;52168.84;5038732;28;20023;-67
2023/06/04 05:33:26;;;;;;;;;;;;;;;-144.99;83.27;52146.44;5033486;28;19964;-68
2023/06/04 05:35:53;;;;;;;;;;;;;;;-144.99;83.11;52166.81;5030343;28;19929;-67
2023/06/04 05:38:20;;;;;;;;;;;;;;;-144.99;82.97;52174.97;5029806;28;20426;-67
2023/06/04 05:40:47;;;;;;;;;;;;;;;-144.99;82.65;52146.44;5029718;28;20042;-67
2023/06/04 05:43:14;;;;;;;;;;;;;;;-144.99;82.40;52164.78;5033131;28;20362;-67
2023/06/04 05:45:42;;;;;;;;;;;;;;;-144.99;81.91;52138.28;5032268;28;19943;-67
2023/06/04 05:48:09;;;;;;;;;;;;;;;-144.99;81.19;52168.84;5031360;28;19932;-68
2023/06/04 05:50:36;;;;;;;;;;;;;;;-144.99;81.03;52154.59;5031312;28;19967;-69
2023/06/04 05:53:02;;;;;;;;;;;;;;;-144.99;80.75;52142.38;5031508;28;20001;-68
2023/06/04 05:55:29;;;;;;;;;;;;;;;-144.99;80.54;52164.78;5034141;28;19933;-69
2023/06/04 05:57:56;;;;;;;;;;;;;;;-144.99;80.37;52170.91;5036764;28;19982;-68
2023/06/04 06:00:23;;;;;;;;;;;;;;;-144.99;79.77;52121.97;5037884;28;19929;-68
2023/06/04 06:02:52;;;;;;;;;;;;;;;-144.99;79.55;52158.66;5042612;28;19929;-68
2023/06/04 06:05:19;;;;;;;;;;;;;;;-144.99;79.28;52162.75;5039618;28;19959;-69
2023/06/04 06:07:46;;;;;;;;;;;;;;;-144.99;79.36;52146.44;5037487;28;19929;-67
2023/06/04 06:10:15;;;;;;;;;;;;;;;-144.99;78.77;52115.88;5032497;28;20510;-66
2023/06/04 06:12:42;;;;;;;;;;;;;;;-144.99;78.61;52170.91;5030250;28;19933;-66
2023/06/04 06:15:09;;;;;;;;;;;;;;;-144.99;78.50;52121.97;5028287;28;19932;-66
2023/06/04 06:17:36;;;;;;;;;;;;;;;-144.99;78.04;52166.81;5031028;28;20028;-68
2023/06/04 06:20:08;;;;;;;;;;;;;;;-144.99;77.94;52158.66;5029560;28;20259;-66
2023/06/04 06:22:35;;;;;;;;;;;;;;;-144.99;77.60;52138.28;5030900;28;20285;-65
2023/06/04 06:25:02;;;;;;;;;;;;;;;-144.99;77.17;52154.59;5034911;28;19966;-65
2023/06/04 06:27:28;;;;;;;;;;;;;;;-144.99;76.65;52174.97;5031464;28;19955;-65
2023/06/04 06:29:55;;;;;;;;;;;;;;;-144.99;76.43;52101.59;5027364;28;19948;-65
2023/06/04 06:32:22;;;;;;;;;;;;;;;-144.99;75.81;52138.28;5028725;28;20233;-65
2023/06/04 06:34:48;;;;;;;;;;;;;;;-144.99;75.47;52128.09;5029513;28;20393;-65
2023/06/04 06:37:16;;;;;;;;;;;;;;;-144.99;75.08;52093.44;5030112;28;19929;-65
2023/06/04 06:39:43;;;;;;;;;;;;;;;-144.99;74.53;52146.44;5029144;28;19929;-65
2023/06/04 06:42:10;;;;;;;;;;;;;;;-144.99;73.89;52130.13;5029572;28;19935;-68
2023/06/04 06:44:36;;;;;;;;;;;;;;;-144.99;73.77;52134.22;5026614;28;19925;-65
2023/06/04 06:47:03;;;;;;;;;;;;;;;-144.99;73.54;52146.44;5027741;28;19952;-65
2023/06/04 06:49:30;;;;;;;;;;;;;;;-144.99;73.09;52130.13;5033289;28;19951;-66
2023/06/04 06:51:56;;;;;;;;;;;;;;;-144.99;72.95;52134.22;5033616;28;19978;-67
2023/06/04 06:54:24;;;;;;;;;;;;;;;-144.99;72.66;52126.06;5027105;28;19933;-66
2023/06/04 06:56:51;;;;;;;;;;;;;;;-144.99;72.16;52117.91;5028486;28;19929;-67
2023/06/04 06:59:17;;;;;;;;;;;;;;;-144.99;71.81;52126.06;5027267;28;19929;-70
2023/06/04 07:01:44;;;;;;;;;;;;;;;-144.99;71.56;52099.56;5029408;28;19932;-68
2023/06/04 07:04:11;;;;;;;;;;;;;;;-144.99;71.72;52101.59;5028684;28;19933;-68
2023/06/04 07:06:37;;;;;;;;;;;;;;;-144.99;71.33;52179.06;5030847;28;20385;-68
2023/06/04 07:09:05;;;;;;;;;;;;;;;-144.99;71.39;52081.22;5027996;28;19932;-70
2023/06/04 07:11:33;;;;;;;;;;;;;;;-144.99;71.22;52085.31;5030597;28;19933;-69
2023/06/04 07:14:01;;;;;;;;;;;;;;;-144.99;70.00;52138.28;5029422;28;19995;-68
2023/06/04 07:16:28;;;;;;;;;;;;;;;-144.99;70.62;52085.31;5030170;28;19929;-69
2023/06/04 07:18:55;;;;;;;;;;;;;;;-144.99;70.41;52105.69;5032981;28;19936;-65
2023/06/04 07:21:23;;;;;;;;;;;;;;;-144.99;69.88;52081.22;5029290;28;19936;-68
2023/06/04 07:23:50;;;;;;;;;;;;;;;-144.99;70.12;52073.06;5027848;28;20393;-69
2023/06/04 07:26:17;;;;;;;;;;;;;;;-144.99;69.68;52113.84;5028749;28;19936;-68
2023/06/04 07:28:45;;;;;;;;;;;;;;;-144.99;69.20;52097.53;5026802;28;19929;-69
2023/06/04 07:31:12;;;;;;;;;;;;;;;-144.99;69.09;52085.31;5028172;28;20173;-68
2023/06/04 07:33:43;;;;;;;;;;;;;;;-144.99;68.69;52097.53;5028179;28;20127;-68
2023/06/04 07:36:10;;;;;;;;;;;;;;;-144.99;68.60;52081.22;5030143;28;19933;-69
2023/06/04 07:38:36;;;;;;;;;;;;;;;-144.99;68.53;52093.44;5026651;28;20029;-67
2023/06/04 07:41:03;;;;;;;;;;;;;;;-144.99;68.63;52121.97;5028147;28;19959;-67
2023/06/04 07:43:29;;;;;;;;;;;;;;;-144.99;67.52;52099.56;5027454;28;19963;-67
2023/06/04 07:45:57;;;;;;;;;;;;;;;-144.99;67.39;52069.00;5028612;28;19934;-67
2023/06/04 07:48:30;;;;;;;;;;;;;;;-144.99;67.54;52052.69;5028100;28;19944;-67
2023/06/04 07:50:56;;;;;;;;;;;;;;;-144.99;67.45;52060.84;5028886;28;20051;-68
2023/06/04 07:53:23;;;;;;;;;;;;;;;-144.99;67.41;52093.44;5030962;28;19933;-64
2023/06/04 07:55:50;;;;;;;;;;;;;;;-144.99;68.70;52105.69;5028436;28;19933;-61
2023/06/04 07:58:16;;;;;;;;;;;;;;;-144.99;67.69;52113.84;5028989;28;20462;-63
2023/06/04 08:00:43;;;;;;;;;;;;;;;-144.99;68.10;52089.38;5030098;28;19936;-64
2023/06/04 08:03:11;;;;;;;;;;;;;;;-144.99;67.75;52085.31;5030174;28;20275;-62
2023/06/04 08:05:38;;;;;;;;;;;;;;;-144.99;67.34;52138.28;5042225;28;19932;-64
2023/06/04 08:08:05;;;;;;;;;;;;;;;-144.99;66.04;52083.25;5047131;28;20020;-64
2023/06/04 08:10:32;;;;;;;;;;;;;;;-144.99;65.10;52091.41;5046319;28;20147;-62
2023/06/04 08:12:59;;;;;;;;;;;;;;;-144.99;65.30;52052.69;5038111;28;19929;-63
2023/06/04 08:15:25;;;;;;;;;;;;;;;-144.99;65.30;52069.00;5028749;28;19940;-63
2023/06/04 08:17:52;;;;;;;;;;;;;;;-144.99;65.73;52109.75;5028098;28;19933;-64
2023/06/04 08:20:20;;;;;;;;;;;;;;;-144.99;65.98;52060.84;5028371;28;20040;-64
2023/06/04 08:22:47;;;;;;;;;;;;;;;-144.99;66.24;52107.72;5029818;28;20007;-64
2023/06/04 08:25:15;;;;;;;;;;;;;;;-144.99;66.46;52044.53;5034882;28;20405;-64
2023/06/04 08:27:42;;;;;;;;;;;;;;;-144.99;66.09;52081.22;5043131;28;20001;-63
2023/06/04 08:30:10;;;;;;;;;;;;;;;-144.99;66.16;52042.50;5041698;28;19996;-64
2023/06/04 08:32:36;;;;;;;;;;;;;;;-144.99;65.62;52034.34;5048111;28;19928;-65
2023/06/04 08:35:03;;;;;;;;;;;;;;;-144.99;65.54;52050.66;5046682;28;19925;-64
2023/06/04 08:37:31;;;;;;;;;;;;;;;-144.99;65.11;52048.63;5045631;28;19978;-64
2023/06/04 08:39:58;;;;;;;;;;;;;;;-144.99;64.61;52073.06;5046989;28;19925;-65
2023/06/04 08:42:28;;;;;;;;;;;;;;;-144.99;64.00;52046.56;5046019;28;19932;-65
2023/06/04 08:44:55;;;;;;;;;;;;;;;-144.99;62.99;52009.91;5046443;28;19935;-68
2023/06/04 08:47:23;;;;;;;;;;;;;;;-144.99;62.63;52069.00;5050032;28;20004;-67
2023/06/04 08:49:51;;;;;;;;;;;;;;;-144.99;62.59;52056.78;5053020;28;20124;-67
2023/06/04 08:52:21;;;;;;;;;;;;;;;-144.99;62.78;52036.38;5047908;28;20258;-67
2023/06/04 08:54:51;;;;;;;;;;;;;;;-144.99;62.56;52024.16;5047310;28;19936;-68
2023/06/04 08:57:18;;;;;;;;;;;;;;;-144.99;62.33;52040.47;5047577;28;20452;-67
2023/06/04 08:59:46;;;;;;;;;;;;;;;-144.99;62.15;52028.22;5045807;28;19964;-69
2023/06/04 09:02:13;;;;;;;;;;;;;;;-144.99;62.00;52052.69;5039627;28;19929;-68
2023/06/04 09:04:40;;;;;;;;;;;;;;;-144.99;61.78;51999.69;5047059;28;20185;-68
2023/06/04 09:07:07;;;;;;;;;;;;;;;-144.99;61.29;52036.38;5048235;28;19976;-68
2023/06/04 09:09:38;;;;;;;;;;;;;;;-144.99;60.96;52032.31;5049727;28;19928;-68
2023/06/04 09:12:09;;;;;;;;;;;;;;;-144.99;60.95;52048.63;5047329;28;19935;-68
2023/06/04 09:14:36;;;;;;;;;;;;;;;-144.99;60.64;52028.22;5043853;28;19940;-69
2023/06/04 09:17:03;;;;;;;;;;;;;;;-144.99;60.67;52040.47;5047590;28;19940;-68
2023/06/04 09:19:29;;;;;;;;;;;;;;;-144.99;61.12;52007.84;5043687;28;20245;-66
2023/06/04 09:21:56;;;;;;;;;;;;;;;-144.99;61.14;52073.06;5049314;28;19928;-67
2023/06/04 09:24:24;;;;;;;;;;;;;;;-144.99;60.89;52007.84;5052169;28;19959;-66
2023/06/04 09:26:51;;;;;;;;;;;;;;;-144.99;60.79;51999.69;5049390;28;20247;-67
2023/06/04 09:29:19;;;;;;;;;;;;;;;-144.99;60.89;52040.47;5046424;28;19928;-66
2023/06/04 09:31:47;;;;;;;;;;;;;;;-144.99;60.91;52016.00;5048838;28;20037;-67
2023/06/04 09:34:13;;;;;;;;;;;;;;;-144.99;60.97;51999.69;5048623;28;20124;-66
2023/06/04 09:36:40;;;;;;;;;;;;;;;-144.99;60.12;51963.03;5051038;28;19929;-66
2023/06/04 09:39:15;;;;;;;;;;;;;;;-144.99;59.46;52018.03;5047721;28;20365;-66
2023/06/04 09:41:42;;;;;;;;;;;;;;;-144.99;59.64;51979.31;5049294;28;20397;-66
2023/06/04 09:44:10;;;;;;;;;;;;;;;-144.99;58.95;52016.00;5046572;28;19941;-69
2023/06/04 09:46:38;;;;;;;;;;;;;;;-144.99;59.02;51987.47;5047207;28;20385;-69
2023/06/04 09:49:05;;;;;;;;;;;;;;;-144.99;59.24;52016.00;5046885;28;19959;-71
2023/06/04 09:51:36;;;;;;;;;;;;;;;-144.99;58.96;51991.56;5047625;28;19925;-69
2023/06/04 09:54:03;;;;;;;;;;;;;;;-144.99;59.00;51995.63;5047424;28;19925;-70
2023/06/04 09:56:30;;;;;;;;;;;;;;;-144.99;58.94;51989.50;5048218;28;20016;-69
2023/06/04 09:59:00;;;;;;;;;;;;;;;-144.99;58.26;52003.78;5046098;28;20377;-68
2023/06/04 10:01:29;;;;;;;;;;;;;;;-144.99;58.23;51983.41;5047698;28;19938;-69
2023/06/04 10:03:58;;;;;;;;;;;;;;;-144.99;58.29;51973.22;5055409;28;20034;-68
2023/06/04 10:06:26;;;;;;;;;;;;;;;-144.99;58.30;51979.31;5062876;28;19971;-70
2023/06/04 10:08:56;;;;;;;;;;;;;;;-144.99;58.00;51975.25;5065042;28;19936;-68
2023/06/04 10:11:26;;;;;;;;;;;;;;;-144.99;57.42;51963.03;5060483;28;19929;-69
2023/06/04 10:13:55;;;;;;;;;;;;;;;-144.99;56.89;51987.47;5063168;28;20110;-68
2023/06/04 10:16:23;;;;;;;;;;;;;;;-144.99;57.37;51985.44;5055322;28;19955;-70
2023/06/04 10:18:50;;;;;;;;;;;;;;;-144.99;57.42;51991.56;5059279;28;19925;-70
2023/06/04 10:21:18;;;;;;;;;;;;;;;-144.99;57.89;51958.94;5059400;28;20244;-69
2023/06/04 10:23:45;;;;;;;;;;;;;;;-144.99;57.66;51987.47;5059150;28;20365;-69
2023/06/04 10:26:14;;;;;;;;;;;;;;;-144.99;57.12;51983.41;5065362;28;19929;-69
2023/06/04 10:28:41;;;;;;;;;;;;;;;-144.99;56.30;51971.16;5059501;28;19954;-69
2023/06/04 10:31:10;;;;;;;;;;;;;;;-144.99;56.77;51950.78;5054244;28;20394;-69
2023/06/04 10:33:36;;;;;;;;;;;;;;;-144.99;56.78;51971.16;5060798;28;19931;-69
2023/06/04 10:36:16;;;;;;;;;;;;;;;-144.99;57.04;51942.63;5056404;28;19933;-69
2023/06/04 10:38:47;;;;;;;;;;;;;;;-144.99;56.90;51932.44;5051579;28;19935;-68
2023/06/04 10:41:17;;;;;;;;;;;;;;;-144.99;56.13;51910.03;5047800;28;19928;-69
2023/06/04 10:43:44;;;;;;;;;;;;;;;-144.99;55.09;51965.06;5046361;28;19928;-69
2023/06/04 10:46:14;;;;;;;;;;;;;;;-144.99;55.29;51946.72;5046875;28;19932;-71
2023/06/04 10:48:51;;;;;;;;;;;;;;;-144.99;55.55;51956.91;5054490;28;19977;-70
2023/06/04 10:51:17;;;;;;;;;;;;;;;-144.99;55.78;51950.78;5052881;28;19924;-70
2023/06/04 10:53:44;;;;;;;;;;;;;;;-144.99;56.00;51983.41;5046098;28;19947;-70
2023/06/04 10:56:13;;;;;;;;;;;;;;;-144.99;56.63;51922.25;5048079;28;19928;-68
2023/06/04 10:58:39;;;;;;;;;;;;;;;-144.99;56.42;51938.56;5054320;28;19924;-68
2023/06/04 11:01:06;;;;;;;;;;;;;;;-144.99;55.53;51938.56;5048707;28;19963;-69
2023/06/04 11:03:36;;;;;;;;;;;;;;;-144.99;55.60;51926.34;5046912;28;20257;-69
2023/06/04 11:06:16;;;;;;;;;;;;;;;-144.99;55.84;51905.97;5045159;28;20268;-69
2023/06/04 11:08:42;;;;;;;;;;;;;;;-144.99;55.63;51922.25;5048574;28;19928;-70
2023/06/04 11:11:13;;;;;;;;;;;;;;;-144.99;55.19;51893.72;5046591;28;19936;-69
2023/06/04 11:13:40;;;;;;;;;;;;;;;-144.99;55.50;51905.97;5040640;28;19995;-69
2023/06/04 11:16:15;;;;;;;;;;;;;;;-144.99;55.78;51967.09;5044722;28;19924;-70
2023/06/04 11:18:41;;;;;;;;;;;;;;;-144.99;55.75;51932.44;5045700;28;19932;-70
2023/06/04 11:21:08;;;;;;;;;;;;;;;-144.99;56.08;51954.88;5047781;28;20305;-69
2023/06/04 11:23:35;;;;;;;;;;;;;;;-144.99;56.05;51918.19;5046401;28;19984;-69
2023/06/04 11:26:02;;;;;;;;;;;;;;;-144.99;56.33;51942.63;5046353;28;19925;-70
2023/06/04 11:28:30;;;;;;;;;;;;;;;-144.99;56.19;51967.09;5045686;28;19929;-70
2023/06/04 11:30:57;;;;;;;;;;;;;;;-144.99;56.45;51973.22;5056369;28;19929;-70
2023/06/04 11:33:24;;;;;;;;;;;;;;;-144.99;56.68;51946.72;5052293;28;19936;-70
2023/06/04 11:35:51;;;;;;;;;;;;;;;-144.99;56.84;51930.41;5050575;28;19956;-70
2023/06/04 11:38:17;;;;;;;;;;;;;;;-144.99;56.56;51938.56;5044999;28;19955;-70
2023/06/04 11:40:45;;;;;;;;;;;;;;;-144.99;56.34;51910.03;5046095;28;19924;-69
2023/06/04 11:43:11;;;;;;;;;;;;;;;-144.99;56.45;51946.72;5044084;28;20342;-71
2023/06/04 11:45:40;;;;;;;;;;;;;;;-144.99;57.33;51983.41;5046061;28;19925;-70
2023/06/04 11:48:07;;;;;;;;;;;;;;;-144.99;56.88;51971.16;5046512;28;19935;-68
2023/06/04 11:50:34;;;;;;;;;;;;;;;-144.99;56.47;51960.97;5047315;28;19924;-69
2023/06/04 11:53:00;;;;;;;;;;;;;;;-144.99;56.88;51938.56;5048027;28;20401;-69
2023/06/04 11:55:27;;;;;;;;;;;;;;;-144.99;56.28;51960.97;5043839;28;19925;-70
2023/06/04 11:57:54;;;;;;;;;;;;;;;-144.99;56.43;51926.34;5047952;28;20338;-69
2023/06/04 12:00:21;;;;;;;;;;;;;;;-144.99;56.05;51950.78;5046483;28;20328;-69
2023/06/04 12:02:54;;;;;;;;;;;;;;;-144.99;55.82;51930.41;5049047;28;19986;-68
2023/06/04 12:05:22;;;;;;;;;;;;;;;-144.99;55.44;51930.41;5050380;28;19931;-69
2023/06/04 12:07:50;;;;;;;;;;;;;;;-144.99;55.53;51920.22;5049867;28;19964;-68
2023/06/04 12:10:17;;;;;;;;;;;;;;;-144.99;55.29;51934.50;5055213;28;20424;-71
2023/06/04 12:12:44;;;;;;;;;;;;;;;-144.99;54.47;51897.81;5053787;28;20494;-68
2023/06/04 12:15:11;;;;;;;;;;;;;;;-144.99;54.67;51928.38;5052515;28;19925;-70
2023/06/04 12:17:38;;;;;;;;;;;;;;;-144.99;54.32;51932.44;5055504;28;19925;-71
2023/06/04 12:20:07;;;;;;;;;;;;;;;-144.99;54.67;51940.59;5048452;28;19928;-70
2023/06/04 12:22:34;;;;;;;;;;;;;;;-144.99;54.99;51938.56;5052281;28;20059;-69
2023/06/04 12:25:02;;;;;;;;;;;;;;;-144.99;54.87;51918.19;5049570;28;19928;-70
2023/06/04 12:27:29;;;;;;;;;;;;;;;-144.99;54.80;51897.81;5043315;28;19933;-69